Walkden, United Kingdom
Current Conditions -  °F | °C
As of 4:50 PM on Friday 24 Oct 2014 (Local Time) from EGCC Reporting Station
Broken Clouds Broken Clouds  
Wind Chill: 11°   Ceiling: 3500
Heat Index: 11°   Visibility: 6mi
Dew Point:   Wind: 8mph
Humidity: 76%   Direction: 280°W
Pressure: 29.85"   Gusts: NA
Location:  53.52°N, 2.4°W
Report Text: EGCC 241550Z 28007KT 9999 FEW029 BKN035 BKN040 11/07 Q1011
Loading
Personal Weather Stations






























Interactive Weather Map
Tropical Storm Tracking
New forecast layout! Learn more

10-Day Weather Forecast

Advertisements
Track Severe Weather on mobile